Terminal Aerodrome Forecast
Issued by NWS

Home | Current Version | Previous Version | Graphics & Text | Print | Product List | Glossary On
Versions: 1 2 3 4 5 6 7 8 9 10 11 12 13 14 15 16
000
FTUS43 KMPX 010520
TAFAXN
TAF
KAXN 010520Z 0106/0206 16013KT P6SM SCT250
     FM010800 17010KT P6SM -RA SCT050 OVC070
     FM011000 22007KT P6SM VCSH SCT050 SCT090
     FM011200 20009KT P6SM SCT080
     FM011800 31008KT P6SM FEW100=

USA.gov is the U.S. government's official web portal to all federal, state and local government web resources and services.